createdAt,value
2023-09-27T00:01:03.827Z,102005.84
2023-09-27T00:03:30.446Z,102002.56
2023-09-27T00:05:57.010Z,101994.91
2023-09-27T00:08:23.754Z,101998.53
2023-09-27T00:10:50.276Z,102005.72
2023-09-27T00:13:16.698Z,102016.38
2023-09-27T00:15:44.027Z,102028.72
2023-09-27T00:18:11.049Z,102035.06
2023-09-27T00:20:37.643Z,102022.19
2023-09-27T00:23:04.701Z,102021.47
2023-09-27T00:25:31.285Z,102020.13
2023-09-27T00:27:57.715Z,102029.28
2023-09-27T00:30:24.217Z,102023.28
2023-09-27T00:32:50.854Z,102020.97
2023-09-27T00:35:21.495Z,102019.41
2023-09-27T00:37:49.064Z,102019.66
2023-09-27T00:40:18.310Z,102013.72
2023-09-27T00:42:45.216Z,102009.41
2023-09-27T00:45:11.750Z,102007.63
2023-09-27T00:47:38.885Z,102004.22
2023-09-27T00:50:08.988Z,101986.03
2023-09-27T00:52:37.191Z,101986.44
2023-09-27T00:55:03.868Z,101990.06
2023-09-27T00:57:30.687Z,101986.66
2023-09-27T00:59:57.765Z,101992.75
2023-09-27T01:02:25.496Z,101993.66
2023-09-27T01:04:52.613Z,101990.13
2023-09-27T01:07:19.289Z,102000.00
2023-09-27T01:09:45.797Z,101988.03
2023-09-27T01:12:12.502Z,101994.34
2023-09-27T01:14:39.003Z,101989.88
2023-09-27T01:17:12.159Z,101992.19
2023-09-27T01:19:39.848Z,101990.72
2023-09-27T01:22:06.301Z,101983.50
2023-09-27T01:24:37.516Z,101984.88
2023-09-27T01:27:08.951Z,101975.41
2023-09-27T01:29:35.496Z,101976.56
2023-09-27T01:32:02.032Z,101966.13
2023-09-27T01:34:28.500Z,101966.00
2023-09-27T01:36:55.557Z,101979.09
2023-09-27T01:39:22.262Z,101983.41
2023-09-27T01:41:48.712Z,101980.94
2023-09-27T01:44:15.152Z,101989.03
2023-09-27T01:46:41.692Z,101988.34
2023-09-27T01:49:08.602Z,101983.16
2023-09-27T01:51:35.126Z,101972.69
2023-09-27T01:54:03.525Z,101960.56
2023-09-27T01:56:30.126Z,101957.16
2023-09-27T01:58:56.738Z,101971.03
2023-09-27T02:01:23.266Z,101964.03
2023-09-27T02:03:49.932Z,101962.47
2023-09-27T02:06:16.481Z,101980.13
2023-09-27T02:08:43.434Z,101988.94
2023-09-27T02:11:10.570Z,102001.06
2023-09-27T02:13:37.113Z,101995.47
2023-09-27T02:16:03.798Z,102002.38
2023-09-27T02:18:30.409Z,102001.59
2023-09-27T02:20:56.870Z,102001.59
2023-09-27T02:23:23.292Z,101987.81
2023-09-27T02:25:59.488Z,101995.63
2023-09-27T02:28:26.009Z,102002.22
2023-09-27T02:30:53.054Z,101998.81
2023-09-27T02:33:19.989Z,102006.75
2023-09-27T02:35:46.550Z,102013.69
2023-09-27T02:38:13.077Z,102012.75
2023-09-27T02:40:41.281Z,102008.28
2023-09-27T02:43:07.816Z,101993.75
2023-09-27T02:45:35.334Z,101987.91
2023-09-27T02:48:02.834Z,101991.69
2023-09-27T02:50:29.689Z,101992.06
2023-09-27T02:52:56.261Z,101993.09
2023-09-27T02:55:22.832Z,101988.03
2023-09-27T02:57:53.544Z,101997.56
2023-09-27T03:00:22.451Z,102009.69
2023-09-27T03:02:49.409Z,102005.28
2023-09-27T03:05:16.364Z,102012.44
2023-09-27T03:07:45.869Z,102014.44
2023-09-27T03:10:12.793Z,102015.53
2023-09-27T03:12:40.729Z,102020.63
2023-09-27T03:15:13.359Z,102011.88
2023-09-27T03:17:41.752Z,102012.22
2023-09-27T03:20:11.735Z,102007.47
2023-09-27T03:22:38.278Z,102012.19
2023-09-27T03:25:05.397Z,102005.50
2023-09-27T03:27:31.869Z,102005.72
2023-09-27T03:29:58.382Z,102001.38
2023-09-27T03:32:24.924Z,101998.69
2023-09-27T03:34:54.448Z,101988.25
2023-09-27T03:37:21.405Z,101986.72
2023-09-27T03:39:49.870Z,101985.31
2023-09-27T03:42:16.359Z,101990.56
2023-09-27T03:44:42.845Z,102002.56
2023-09-27T03:47:09.535Z,102001.59
2023-09-27T03:49:36.067Z,102005.31
2023-09-27T03:52:02.611Z,102009.75
2023-09-27T03:54:29.096Z,102014.28
2023-09-27T03:56:55.607Z,102030.69
2023-09-27T03:59:22.122Z,102032.19
2023-09-27T04:01:48.594Z,102021.72
2023-09-27T04:04:15.192Z,102020.16
2023-09-27T04:06:41.721Z,102009.91
2023-09-27T04:09:09.483Z,102024.81
2023-09-27T04:11:36.042Z,102023.81
2023-09-27T04:14:02.597Z,102015.00
2023-09-27T04:16:31.977Z,102024.50
2023-09-27T04:18:59.682Z,102020.94
2023-09-27T04:21:26.838Z,102019.25
2023-09-27T04:24:00.798Z,102021.53
2023-09-27T04:26:27.954Z,102018.06
2023-09-27T04:28:54.737Z,102023.28
2023-09-27T04:31:21.408Z,102025.69
2023-09-27T04:33:48.489Z,102026.75
2023-09-27T04:36:19.197Z,102031.25
2023-09-27T04:38:46.889Z,102026.22
2023-09-27T04:41:18.256Z,102022.84
2023-09-27T04:43:45.862Z,102029.19
2023-09-27T04:46:15.635Z,102034.28
2023-09-27T04:48:42.098Z,102032.88
2023-09-27T04:51:09.034Z,102030.50
2023-09-27T04:53:38.494Z,102036.78
2023-09-27T04:56:07.278Z,102031.56
2023-09-27T04:58:35.242Z,102019.53
2023-09-27T05:01:03.541Z,102012.56
2023-09-27T05:03:30.149Z,102001.34
2023-09-27T05:05:56.676Z,102013.63
2023-09-27T05:08:23.191Z,102012.75
2023-09-27T05:10:49.667Z,102004.28
2023-09-27T05:13:16.175Z,102005.25
2023-09-27T05:15:42.735Z,102006.38
2023-09-27T05:18:09.251Z,102009.81
2023-09-27T05:20:36.907Z,102008.19
2023-09-27T05:23:03.793Z,102010.81
2023-09-27T05:25:30.366Z,102010.00
2023-09-27T05:27:58.173Z,102020.41
2023-09-27T05:30:24.752Z,102023.88
2023-09-27T05:32:51.401Z,102020.34
2023-09-27T05:35:18.004Z,102015.19
2023-09-27T05:37:45.813Z,102012.53
2023-09-27T05:40:13.096Z,102008.13
2023-09-27T05:42:40.248Z,101992.50
2023-09-27T05:45:11.508Z,101992.31
2023-09-27T05:47:38.887Z,101992.19
2023-09-27T05:50:06.937Z,101996.28
2023-09-27T05:52:34.378Z,101984.78
2023-09-27T05:55:00.986Z,101985.50
2023-09-27T05:57:27.530Z,102000.91
2023-09-27T05:59:54.783Z,102007.63
2023-09-27T06:02:21.722Z,102005.41
2023-09-27T06:04:48.643Z,102001.59
2023-09-27T06:07:16.610Z,102008.22
2023-09-27T06:09:43.655Z,102006.34
2023-09-27T06:12:11.579Z,102000.06
2023-09-27T06:14:39.644Z,101998.94
2023-09-27T06:17:07.346Z,101993.47
2023-09-27T06:19:34.434Z,101994.94
2023-09-27T06:22:05.171Z,101990.44
2023-09-27T06:24:31.684Z,101990.31
2023-09-27T06:26:59.300Z,102002.25
2023-09-27T06:29:25.868Z,101998.56
2023-09-27T06:31:53.164Z,102000.06
2023-09-27T06:34:19.644Z,102005.00
2023-09-27T06:36:49.556Z,102008.25
2023-09-27T06:39:17.840Z,102005.50
2023-09-27T06:41:46.176Z,102014.69
2023-09-27T06:44:15.539Z,102001.31
2023-09-27T06:49:13.433Z,102009.28
2023-09-27T06:51:39.966Z,102013.22
2023-09-27T06:54:07.130Z,102010.38
2023-09-27T06:56:33.869Z,101997.13
2023-09-27T06:59:00.482Z,101997.75
2023-09-27T07:01:27.010Z,102001.16
2023-09-27T07:03:53.536Z,102006.25
2023-09-27T07:06:20.130Z,102002.63
2023-09-27T07:08:53.265Z,102003.94
2023-09-27T07:11:22.848Z,101998.44
2023-09-27T07:13:49.358Z,102011.31
2023-09-27T07:16:27.749Z,102013.69
2023-09-27T07:18:54.870Z,102003.22
2023-09-27T07:21:21.512Z,102012.38
2023-09-27T07:23:50.368Z,102013.84
2023-09-27T07:26:19.992Z,102022.25
2023-09-27T07:28:46.551Z,102014.84
2023-09-27T07:31:15.768Z,102023.94
2023-09-27T07:33:45.455Z,102023.63
2023-09-27T07:36:12.721Z,102025.66
2023-09-27T07:38:40.736Z,102022.50
2023-09-27T07:41:12.284Z,102018.91
2023-09-27T07:43:40.156Z,102021.69
2023-09-27T07:46:08.540Z,102029.75
2023-09-27T07:48:40.315Z,102038.47
2023-09-27T07:51:14.452Z,102046.84
2023-09-27T07:53:41.457Z,102049.34
2023-09-27T07:56:10.585Z,102050.00
2023-09-27T07:58:38.378Z,102051.25
2023-09-27T08:01:05.980Z,102050.66
2023-09-27T08:03:32.888Z,102050.03
2023-09-27T08:05:59.811Z,102061.72
2023-09-27T08:08:26.447Z,102058.72
2023-09-27T08:10:53.994Z,102046.81
2023-09-27T08:13:20.876Z,102041.59
2023-09-27T08:15:50.281Z,102061.75
2023-09-27T08:18:17.590Z,102059.31
2023-09-27T08:20:44.287Z,102060.38
2023-09-27T08:23:10.845Z,102057.66
2023-09-27T08:25:38.412Z,102064.50
2023-09-27T08:28:07.108Z,102066.63
2023-09-27T08:30:33.678Z,102063.72
2023-09-27T08:33:00.507Z,102066.97
2023-09-27T08:35:27.360Z,102074.63
2023-09-27T08:37:53.881Z,102074.88
2023-09-27T08:40:20.461Z,102057.94
2023-09-27T08:42:49.105Z,102059.38
2023-09-27T08:45:16.011Z,102060.94
2023-09-27T08:47:46.877Z,102059.72
2023-09-27T08:50:16.851Z,102067.22
2023-09-27T08:52:48.841Z,102071.34
2023-09-27T08:55:16.575Z,102069.09
2023-09-27T08:57:48.349Z,102062.25
2023-09-27T09:00:17.006Z,102049.69
2023-09-27T09:02:45.107Z,102046.94
2023-09-27T09:05:14.873Z,102038.19
2023-09-27T09:07:44.332Z,102040.41
2023-09-27T09:10:17.509Z,102045.59
2023-09-27T09:12:46.049Z,102042.63
2023-09-27T09:15:27.285Z,102039.44
2023-09-27T09:17:58.733Z,102038.94
2023-09-27T09:20:33.261Z,102028.78
2023-09-27T09:23:04.696Z,102008.84
2023-09-27T09:25:31.302Z,102007.91
2023-09-27T09:28:05.479Z,102001.22
2023-09-27T09:30:36.547Z,101998.06
2023-09-27T09:33:04.462Z,102001.22
2023-09-27T09:35:35.414Z,102008.06
2023-09-27T09:38:02.966Z,102000.16
2023-09-27T09:40:31.040Z,102000.91
2023-09-27T09:42:59.703Z,101997.84
2023-09-27T09:45:27.496Z,101997.41
2023-09-27T09:47:54.725Z,101988.31
2023-09-27T09:50:21.374Z,101990.97
2023-09-27T09:52:58.814Z,101988.63
2023-09-27T09:55:52.623Z,101981.63
2023-09-27T09:58:30.602Z,101987.84
2023-09-27T10:01:02.151Z,101983.69
2023-09-27T10:03:35.144Z,101985.78
2023-09-27T10:06:06.424Z,101985.19
2023-09-27T10:08:35.399Z,101984.97
2023-09-27T10:11:05.045Z,101989.31
2023-09-27T10:13:37.127Z,101988.22
2023-09-27T10:16:07.084Z,101991.09
2023-09-27T10:18:37.599Z,101991.72
2023-09-27T10:21:04.039Z,101988.34
2023-09-27T10:23:59.200Z,101987.94
2023-09-27T10:26:28.794Z,101979.03
2023-09-27T10:29:17.744Z,101989.72
2023-09-27T10:31:59.798Z,101995.53
2023-09-27T10:34:26.546Z,101991.47
2023-09-27T10:37:15.002Z,102003.03
2023-09-27T10:40:20.554Z,101993.44
2023-09-27T10:42:50.648Z,101988.38
2023-09-27T10:45:18.410Z,101966.00
2023-09-27T10:47:47.245Z,101960.38
2023-09-27T10:50:14.007Z,101950.72
2023-09-27T10:52:40.813Z,101941.72
2023-09-27T10:55:14.478Z,101937.25
2023-09-27T10:57:42.528Z,101931.81
2023-09-27T11:00:13.027Z,101927.84
2023-09-27T11:02:39.730Z,101926.28
2023-09-27T11:05:07.912Z,101924.50
2023-09-27T11:07:51.624Z,101913.88
2023-09-27T11:10:39.102Z,101906.44
2023-09-27T11:13:13.907Z,101898.75
2023-09-27T11:15:42.174Z,101890.63
2023-09-27T11:18:09.747Z,101882.28
2023-09-27T11:20:46.730Z,101885.31
2023-09-27T11:23:13.256Z,101891.69
2023-09-27T11:25:39.826Z,101887.59
2023-09-27T11:28:06.508Z,101891.63
2023-09-27T11:30:36.043Z,101893.22
2023-09-27T11:33:09.186Z,101881.09
2023-09-27T11:35:36.112Z,101876.91
2023-09-27T11:38:05.842Z,101876.63
2023-09-27T11:40:37.200Z,101880.41
2023-09-27T11:43:04.134Z,101872.69
2023-09-27T11:45:45.935Z,101860.50
2023-09-27T11:48:12.936Z,101857.72
2023-09-27T11:50:39.797Z,101864.16
2023-09-27T11:53:06.505Z,101854.50
2023-09-27T11:55:33.145Z,101850.03
2023-09-27T11:58:00.862Z,101849.16
2023-09-27T12:00:28.908Z,101839.75
2023-09-27T12:02:57.889Z,101829.22
2023-09-27T12:05:26.226Z,101841.28
2023-09-27T12:07:53.974Z,101834.03
2023-09-27T12:10:20.721Z,101827.69
2023-09-27T12:12:47.286Z,101823.47
2023-09-27T12:15:13.764Z,101828.25
2023-09-27T12:17:40.420Z,101814.97
2023-09-27T12:20:13.292Z,101807.56
2023-09-27T12:22:45.725Z,101799.16
2023-09-27T12:25:12.676Z,101805.41
2023-09-27T12:27:39.313Z,101797.56
2023-09-27T12:30:06.546Z,101793.63
2023-09-27T12:32:33.211Z,101788.84
2023-09-27T12:34:59.844Z,101784.56
2023-09-27T12:37:27.002Z,101777.56
2023-09-27T12:39:53.436Z,101777.03
2023-09-27T12:42:19.956Z,101777.91
2023-09-27T12:44:46.428Z,101773.25
2023-09-27T12:47:13.092Z,101770.88
2023-09-27T12:49:40.658Z,101770.00
2023-09-27T12:52:07.216Z,101772.78
2023-09-27T12:54:33.707Z,101762.72
2023-09-27T12:57:00.470Z,101764.56
2023-09-27T12:59:27.877Z,101766.69
2023-09-27T13:01:55.086Z,101764.56
2023-09-27T13:04:21.917Z,101760.47
2023-09-27T13:06:48.559Z,101756.88
2023-09-27T13:09:18.309Z,101750.28
2023-09-27T13:11:44.982Z,101749.84
2023-09-27T13:14:11.689Z,101744.28
2023-09-27T13:16:38.306Z,101729.06
2023-09-27T13:19:04.971Z,101725.00
2023-09-27T13:21:31.513Z,101724.53
2023-09-27T13:23:58.001Z,101719.84
2023-09-27T13:26:26.534Z,101712.47
2023-09-27T13:28:53.225Z,101700.94
2023-09-27T13:31:19.897Z,101705.88
2023-09-27T13:33:49.116Z,101705.19
2023-09-27T13:36:21.717Z,101697.97
2023-09-27T13:38:50.807Z,101698.38
2023-09-27T13:41:17.376Z,101703.34
2023-09-27T13:43:43.840Z,101700.78
2023-09-27T13:46:10.500Z,101702.97
2023-09-27T13:48:37.582Z,101705.00
2023-09-27T13:51:04.523Z,101704.91
2023-09-27T13:53:31.251Z,101700.59
2023-09-27T13:55:57.873Z,101705.47
2023-09-27T13:58:24.343Z,101707.44
2023-09-27T14:00:50.780Z,101693.63
2023-09-27T14:03:18.673Z,101696.41
2023-09-27T14:05:45.294Z,101700.47
2023-09-27T14:08:12.371Z,101687.31
2023-09-27T14:10:38.895Z,101685.38
2023-09-27T14:13:05.404Z,101694.44
2023-09-27T14:15:32.534Z,101685.34
2023-09-27T14:17:59.181Z,101691.66
2023-09-27T14:20:26.289Z,101691.91
2023-09-27T14:22:53.508Z,101685.50
2023-09-27T14:25:21.167Z,101680.44
2023-09-27T14:27:48.184Z,101675.97
2023-09-27T14:30:15.603Z,101671.94
2023-09-27T14:32:44.245Z,101677.69
2023-09-27T14:35:13.141Z,101666.47
2023-09-27T14:37:40.731Z,101661.16
2023-09-27T14:40:10.454Z,101657.84
2023-09-27T14:42:38.770Z,101652.78
2023-09-27T14:45:10.946Z,101646.69
2023-09-27T14:47:43.766Z,101651.16
2023-09-27T14:50:10.806Z,101641.34
2023-09-27T14:52:37.370Z,101647.22
2023-09-27T14:55:04.451Z,101638.22
2023-09-27T14:57:31.023Z,101640.75
2023-09-27T14:59:57.759Z,101631.66
2023-09-27T15:02:24.332Z,101637.38
2023-09-27T15:04:50.994Z,101637.94
2023-09-27T15:07:20.225Z,101629.56
2023-09-27T15:09:47.553Z,101628.41
2023-09-27T15:12:14.043Z,101629.94
2023-09-27T15:14:40.655Z,101626.28
2023-09-27T15:17:07.177Z,101621.38
2023-09-27T15:19:34.928Z,101624.56
2023-09-27T15:22:04.435Z,101606.50
2023-09-27T15:24:32.100Z,101604.41
2023-09-27T15:26:58.872Z,101609.28
2023-09-27T15:29:25.404Z,101612.31
2023-09-27T15:31:53.445Z,101606.56
2023-09-27T15:34:20.107Z,101610.06
2023-09-27T15:36:47.255Z,101606.69
2023-09-27T15:39:13.741Z,101599.97
2023-09-27T15:41:40.225Z,101598.56
2023-09-27T15:44:06.888Z,101606.91
2023-09-27T15:46:40.987Z,101601.09
2023-09-27T15:49:08.043Z,101602.03
2023-09-27T15:51:37.611Z,101599.50
2023-09-27T15:54:17.467Z,101595.72
2023-09-27T15:56:45.185Z,101586.63
2023-09-27T15:59:11.687Z,101587.25
2023-09-27T16:01:39.191Z,101590.53
2023-09-27T16:04:06.170Z,101581.19
2023-09-27T16:06:32.657Z,101577.47
2023-09-27T16:08:59.141Z,101583.16
2023-09-27T16:11:29.872Z,101578.69
2023-09-27T16:13:56.887Z,101578.66
2023-09-27T16:16:23.837Z,101573.47
2023-09-27T16:18:50.517Z,101578.19
2023-09-27T16:21:19.468Z,101577.34
2023-09-27T16:23:46.078Z,101573.16
2023-09-27T16:26:13.111Z,101569.91
2023-09-27T16:28:40.377Z,101570.19
2023-09-27T16:31:09.550Z,101563.47
2023-09-27T16:33:38.547Z,101556.75
2023-09-27T16:36:05.284Z,101550.88
2023-09-27T16:38:31.815Z,101547.88
2023-09-27T16:40:59.330Z,101536.72
2023-09-27T16:43:25.934Z,101536.50
2023-09-27T16:45:52.437Z,101528.56
2023-09-27T16:48:18.937Z,101551.53
2023-09-27T16:50:45.570Z,101551.66
2023-09-27T16:53:12.603Z,101549.25
2023-09-27T16:55:39.944Z,101547.88
2023-09-27T16:58:06.520Z,101549.09
2023-09-27T17:00:33.173Z,101542.47
2023-09-27T17:02:59.660Z,101541.06
2023-09-27T17:05:26.291Z,101537.09
2023-09-27T17:07:53.095Z,101531.75
2023-09-27T17:10:19.610Z,101519.25
2023-09-27T17:12:46.046Z,101523.47
2023-09-27T17:15:12.657Z,101519.53
2023-09-27T17:17:39.168Z,101518.22
2023-09-27T17:20:06.537Z,101516.91
2023-09-27T17:22:33.465Z,101515.38
2023-09-27T17:25:01.266Z,101523.41
2023-09-27T17:27:27.749Z,101525.47
2023-09-27T17:29:54.353Z,101520.44
2023-09-27T17:32:20.824Z,101517.31
2023-09-27T17:34:47.287Z,101507.97
2023-09-27T17:37:13.955Z,101517.00
2023-09-27T17:39:40.503Z,101523.47
2023-09-27T17:42:07.133Z,101518.56
2023-09-27T17:44:33.736Z,101518.56
2023-09-27T17:47:00.275Z,101515.31
2023-09-27T17:49:27.417Z,101520.00
2023-09-27T17:51:56.640Z,101503.78
2023-09-27T17:54:23.735Z,101498.41
2023-09-27T17:56:51.570Z,101489.41
2023-09-27T17:59:19.426Z,101484.25
2023-09-27T18:01:46.173Z,101477.72
2023-09-27T18:04:12.920Z,101480.63
2023-09-27T18:06:39.589Z,101472.69
2023-09-27T18:09:06.163Z,101475.34
2023-09-27T18:11:32.637Z,101474.72
2023-09-27T18:13:59.498Z,101471.75
2023-09-27T18:16:26.295Z,101470.53
2023-09-27T18:18:54.840Z,101466.22
2023-09-27T18:21:22.146Z,101453.75
2023-09-27T18:23:51.738Z,101450.97
2023-09-27T18:26:18.780Z,101446.88
2023-09-27T18:28:45.552Z,101445.44
2023-09-27T18:31:12.432Z,101450.59
2023-09-27T18:33:39.066Z,101461.66
2023-09-27T18:36:05.721Z,101456.13
2023-09-27T18:38:32.580Z,101470.16
2023-09-27T18:40:59.355Z,101476.88
2023-09-27T18:43:25.821Z,101471.25
2023-09-27T18:45:52.487Z,101470.41
2023-09-27T18:48:20.035Z,101470.53
2023-09-27T18:50:48.658Z,101473.41
2023-09-27T18:53:15.267Z,101476.16
2023-09-27T18:55:42.135Z,101469.69
2023-09-27T18:58:14.790Z,101470.25
2023-09-27T19:00:44.787Z,101452.03
2023-09-27T19:03:13.754Z,101462.34
2023-09-27T19:05:40.838Z,101457.06
2023-09-27T19:08:07.716Z,101463.06
2023-09-27T19:10:34.641Z,101459.34
2023-09-27T19:13:01.272Z,101449.63
2023-09-27T19:15:27.813Z,101439.94
2023-09-27T19:17:57.846Z,101439.78
2023-09-27T19:20:25.235Z,101440.66
2023-09-27T19:22:53.891Z,101438.50
2023-09-27T19:25:23.626Z,101430.22
2023-09-27T19:27:51.174Z,101444.13
2023-09-27T19:30:18.211Z,101436.31
2023-09-27T19:32:46.142Z,101437.03
2023-09-27T19:35:13.445Z,101438.75
2023-09-27T19:37:40.795Z,101442.31
2023-09-27T19:40:10.740Z,101429.38
2023-09-27T19:42:38.000Z,101427.84
2023-09-27T19:45:06.346Z,101420.84
2023-09-27T19:47:35.978Z,101420.97
2023-09-27T19:50:04.112Z,101413.41
2023-09-27T19:52:30.960Z,101399.97
2023-09-27T19:54:57.860Z,101396.75
2023-09-27T19:57:24.568Z,101389.31
2023-09-27T19:59:51.131Z,101392.78
2023-09-27T20:02:17.829Z,101385.84
2023-09-27T20:04:44.443Z,101390.97
2023-09-27T20:07:11.045Z,101395.19
2023-09-27T20:09:37.621Z,101389.91
2023-09-27T20:12:04.451Z,101377.31
2023-09-27T20:14:32.319Z,101375.88
2023-09-27T20:16:59.146Z,101376.84
2023-09-27T20:19:26.962Z,101364.50
2023-09-27T20:21:56.311Z,101358.69
2023-09-27T20:24:25.598Z,101355.94
2023-09-27T20:26:52.235Z,101357.50
2023-09-27T20:29:18.882Z,101349.38
2023-09-27T20:31:45.440Z,101343.97
2023-09-27T20:34:12.147Z,101331.66
2023-09-27T20:36:38.876Z,101313.19
2023-09-27T20:39:05.684Z,101312.00
2023-09-27T20:41:32.303Z,101315.00
2023-09-27T20:43:58.794Z,101310.91
2023-09-27T20:46:25.314Z,101317.50
2023-09-27T20:48:51.938Z,101323.97
2023-09-27T20:51:18.590Z,101318.31
2023-09-27T20:53:45.173Z,101299.72
2023-09-27T20:56:12.263Z,101295.16
2023-09-27T20:58:42.283Z,101285.22
2023-09-27T21:01:25.133Z,101267.53
2023-09-27T21:03:52.082Z,101277.38
2023-09-27T21:06:28.975Z,101270.50
2023-09-27T21:09:04.120Z,101286.94
2023-09-27T21:11:31.414Z,101303.13
2023-09-27T21:14:03.331Z,101308.03
2023-09-27T21:16:32.725Z,101314.28
2023-09-27T21:19:00.271Z,101301.69
2023-09-27T21:21:26.863Z,101312.97
2023-09-27T21:23:53.891Z,101304.31
2023-09-27T21:26:21.512Z,101302.63
2023-09-27T21:28:48.378Z,101323.63
2023-09-27T21:31:15.112Z,101308.75
2023-09-27T21:33:42.899Z,101305.28
2023-09-27T21:36:09.792Z,101295.53
2023-09-27T21:38:37.131Z,101284.97
2023-09-27T21:41:04.160Z,101283.91
2023-09-27T21:43:33.292Z,101285.47
2023-09-27T21:46:00.215Z,101281.75
2023-09-27T21:48:27.278Z,101281.97
2023-09-27T21:50:53.840Z,101273.78
2023-09-27T21:53:20.396Z,101262.09
2023-09-27T21:55:47.024Z,101246.97
2023-09-27T21:58:13.675Z,101232.09
2023-09-27T22:00:40.284Z,101234.75
2023-09-27T22:03:06.967Z,101227.94
2023-09-27T22:05:33.917Z,101237.97
2023-09-27T22:08:01.507Z,101238.69
2023-09-27T22:10:35.493Z,101252.47
2023-09-27T22:13:29.062Z,101274.19
2023-09-27T22:15:56.375Z,101310.91
2023-09-27T22:18:23.771Z,101322.19
2023-09-27T22:20:50.758Z,101318.22
2023-09-27T22:23:40.322Z,101322.16
2023-09-27T22:26:16.261Z,101314.47
2023-09-27T22:28:44.918Z,101306.53
2023-09-27T22:31:15.638Z,101301.63
2023-09-27T22:33:49.791Z,101298.16
2023-09-27T22:36:16.484Z,101290.94
2023-09-27T22:38:43.646Z,101288.19
2023-09-27T22:41:16.144Z,101295.25
2023-09-27T22:43:49.486Z,101296.94
2023-09-27T22:46:16.993Z,101283.41
2023-09-27T22:48:43.651Z,101273.78
2023-09-27T22:51:10.198Z,101272.13
2023-09-27T22:53:36.968Z,101276.72
2023-09-27T22:56:05.914Z,101278.63
2023-09-27T22:58:34.239Z,101272.66
2023-09-27T23:01:21.283Z,101262.19
2023-09-27T23:03:48.601Z,101264.97
2023-09-27T23:06:16.909Z,101273.88
2023-09-27T23:08:46.301Z,101267.03
2023-09-27T23:11:13.588Z,101262.59
2023-09-27T23:13:49.466Z,101246.72
2023-09-27T23:16:30.422Z,101252.97
2023-09-27T23:19:06.501Z,101268.81
2023-09-27T23:21:33.331Z,101277.59
2023-09-27T23:24:11.805Z,101282.75
2023-09-27T23:26:53.451Z,101277.44
2023-09-27T23:29:30.080Z,101277.59
2023-09-27T23:32:30.964Z,101279.38
2023-09-27T23:37:34.494Z,101282.03
2023-09-27T23:40:02.069Z,101283.94
2023-09-27T23:42:35.513Z,101284.94
2023-09-27T23:45:12.201Z,101271.72
2023-09-27T23:47:51.033Z,101277.97
2023-09-27T23:50:18.268Z,101284.34
2023-09-27T23:52:47.224Z,101285.44
2023-09-27T23:55:16.280Z,101293.63
2023-09-27T23:57:47.675Z,101302.88
